createdAt,value
2023-02-18T00:00:20.144Z,19.75
2023-02-18T00:02:52.832Z,20.77
2023-02-18T00:05:24.590Z,20.48
2023-02-18T00:07:55.995Z,20.20
2023-02-18T00:10:27.514Z,22.38
2023-02-18T00:12:58.966Z,21.98
2023-02-18T00:15:30.435Z,22.95
2023-02-18T00:18:01.940Z,25.73
2023-02-18T00:20:33.418Z,25.20
2023-02-18T00:23:04.899Z,26.15
2023-02-18T00:25:36.320Z,25.35
2023-02-18T00:28:07.748Z,26.98
2023-02-18T00:30:43.901Z,28.20
2023-02-18T00:33:15.710Z,26.98
2023-02-18T00:35:47.245Z,27.60
2023-02-18T00:38:18.677Z,26.17
2023-02-18T00:40:50.123Z,28.77
2023-02-18T00:43:21.551Z,26.88
2023-02-18T00:45:53.192Z,28.57
2023-02-18T00:48:24.686Z,27.55
2023-02-18T00:50:56.115Z,28.40
2023-02-18T00:53:31.009Z,29.60
2023-02-18T00:56:02.642Z,29.42
2023-02-18T00:58:35.827Z,29.25
2023-02-18T01:01:08.974Z,31.23
2023-02-18T01:03:41.992Z,31.42
2023-02-18T01:06:13.816Z,30.42
2023-02-18T01:08:45.406Z,31.30
2023-02-18T01:11:17.159Z,29.80
2023-02-18T01:13:48.955Z,31.13
2023-02-18T01:16:20.480Z,30.47
2023-02-18T01:18:52.006Z,29.13
2023-02-18T01:21:23.488Z,29.27
2023-02-18T01:23:55.032Z,27.88
2023-02-18T01:26:26.502Z,26.97
2023-02-18T01:28:57.970Z,25.95
2023-02-18T01:31:29.538Z,25.83
2023-02-18T01:34:01.099Z,25.25
2023-02-18T01:36:32.503Z,25.43
2023-02-18T01:39:05.731Z,25.38
2023-02-18T01:41:37.226Z,25.20
2023-02-18T01:44:11.843Z,23.57
2023-02-18T01:46:43.753Z,24.83
2023-02-18T01:49:22.650Z,24.95
2023-02-18T01:52:04.901Z,23.33
2023-02-18T01:54:39.734Z,24.08
2023-02-18T01:57:22.573Z,25.63
2023-02-18T02:00:15.380Z,26.10
2023-02-18T02:02:49.496Z,27.58
2023-02-18T02:05:21.933Z,25.60
2023-02-18T02:07:55.020Z,27.65
2023-02-18T02:11:02.305Z,26.55
2023-02-18T02:13:41.969Z,27.73
2023-02-18T02:16:33.976Z,27.30
2023-02-18T02:19:08.451Z,27.27
2023-02-18T02:21:39.874Z,27.87
2023-02-18T02:24:23.192Z,26.55
2023-02-18T02:27:13.250Z,26.25
2023-02-18T02:30:11.845Z,25.75
2023-02-18T02:32:58.616Z,25.23
2023-02-18T02:36:16.697Z,24.17
2023-02-18T02:38:56.464Z,23.17
2023-02-18T02:41:36.707Z,24.10
2023-02-18T02:44:19.819Z,22.60
2023-02-18T02:47:02.651Z,22.90
2023-02-18T02:49:48.400Z,21.45
2023-02-18T02:52:33.717Z,20.50
2023-02-18T02:55:09.657Z,19.90
2023-02-18T02:57:50.925Z,17.05
2023-02-18T03:00:45.298Z,14.77
2023-02-18T03:03:34.910Z,14.82
2023-02-18T03:06:35.833Z,13.67
2023-02-18T03:09:14.582Z,12.10
2023-02-18T03:12:03.070Z,11.57
2023-02-18T03:14:50.921Z,11.60
2023-02-18T03:17:31.124Z,11.10
2023-02-18T03:20:19.342Z,10.55
2023-02-18T03:22:53.602Z,10.88
2023-02-18T03:25:25.884Z,11.57
2023-02-18T03:28:02.945Z,11.52
2023-02-18T03:30:51.941Z,11.70
2023-02-18T03:33:29.091Z,12.57
2023-02-18T03:36:01.495Z,12.87
2023-02-18T03:38:59.424Z,13.00
2023-02-18T03:41:31.139Z,14.38
2023-02-18T03:44:07.716Z,15.27
2023-02-18T03:46:42.251Z,15.25
2023-02-18T03:49:14.935Z,15.35
2023-02-18T03:51:46.386Z,17.48
2023-02-18T03:54:17.811Z,18.77
2023-02-18T03:56:49.295Z,18.50
2023-02-18T03:59:20.799Z,19.45
2023-02-18T04:01:52.212Z,18.70
2023-02-18T04:04:23.962Z,19.10
2023-02-18T04:06:55.436Z,18.92
2023-02-18T04:09:26.905Z,18.83
2023-02-18T04:11:58.362Z,17.23
2023-02-18T04:14:29.928Z,16.93
2023-02-18T04:17:01.503Z,17.35
2023-02-18T04:19:32.969Z,17.75
2023-02-18T04:22:04.413Z,17.50
2023-02-18T04:24:35.915Z,17.07
2023-02-18T04:27:07.461Z,16.65
2023-02-18T04:29:39.145Z,16.05
2023-02-18T04:32:10.555Z,16.63
2023-02-18T04:34:41.983Z,15.67
2023-02-18T04:37:13.443Z,16.15
2023-02-18T04:39:44.883Z,16.48
2023-02-18T04:42:16.359Z,15.55
2023-02-18T04:44:47.830Z,16.92
2023-02-18T04:47:19.234Z,14.43
2023-02-18T04:49:50.859Z,14.63
2023-02-18T04:52:22.625Z,13.98
2023-02-18T04:54:54.056Z,12.77
2023-02-18T04:57:25.532Z,13.38
2023-02-18T04:59:57.006Z,12.40
2023-02-18T05:02:28.480Z,12.00
2023-02-18T05:05:00.096Z,11.50
2023-02-18T05:07:31.538Z,11.95
2023-02-18T05:10:04.129Z,11.98
2023-02-18T05:12:35.555Z,12.30
2023-02-18T05:15:07.604Z,12.50
2023-02-18T05:17:39.002Z,12.30
2023-02-18T05:20:11.046Z,12.48
2023-02-18T05:22:42.585Z,11.32
2023-02-18T05:25:14.062Z,10.85
2023-02-18T05:27:45.659Z,11.55
2023-02-18T05:30:17.426Z,11.55
2023-02-18T05:32:48.893Z,11.38
2023-02-18T05:35:20.306Z,11.63
2023-02-18T05:37:51.792Z,12.07
2023-02-18T05:40:23.242Z,11.90
2023-02-18T05:42:54.756Z,12.65
2023-02-18T05:45:26.419Z,12.02
2023-02-18T05:47:57.967Z,13.10
2023-02-18T05:50:29.773Z,13.20
2023-02-18T05:53:01.294Z,13.38
2023-02-18T05:55:32.728Z,13.15
2023-02-18T05:58:04.261Z,13.85
2023-02-18T06:00:36.862Z,14.18
2023-02-18T06:03:09.786Z,13.98
2023-02-18T06:05:41.227Z,14.10
2023-02-18T06:08:12.663Z,14.07
2023-02-18T06:10:44.246Z,13.00
2023-02-18T06:13:15.848Z,11.27
2023-02-18T06:15:51.130Z,12.23
2023-02-18T06:18:22.816Z,11.38
2023-02-18T06:20:54.427Z,11.10
2023-02-18T06:23:25.838Z,10.55
2023-02-18T06:25:57.374Z,10.68
2023-02-18T06:28:28.828Z,11.88
2023-02-18T06:31:01.763Z,11.40
2023-02-18T06:33:33.536Z,11.03
2023-02-18T06:36:07.961Z,9.65
2023-02-18T06:38:41.713Z,10.13
2023-02-18T06:41:14.752Z,10.15
2023-02-18T06:43:46.170Z,8.75
2023-02-18T06:46:17.665Z,8.63
2023-02-18T06:48:49.164Z,8.07
2023-02-18T06:51:20.589Z,8.18
2023-02-18T06:53:52.059Z,7.38
2023-02-18T06:56:23.478Z,6.67
2023-02-18T06:58:54.881Z,6.68
2023-02-18T07:01:26.395Z,6.30
2023-02-18T07:03:57.877Z,6.07
2023-02-18T07:06:29.480Z,6.97
2023-02-18T07:09:01.010Z,6.30
2023-02-18T07:11:32.557Z,6.47
2023-02-18T07:14:04.038Z,6.90
2023-02-18T07:16:35.590Z,7.28
2023-02-18T07:19:07.091Z,6.97
2023-02-18T07:21:38.590Z,6.47
2023-02-18T07:24:10.120Z,6.60
2023-02-18T07:26:41.575Z,6.82
2023-02-18T07:29:13.035Z,7.97
2023-02-18T07:31:44.592Z,6.97
2023-02-18T07:34:16.122Z,7.45
2023-02-18T07:36:47.548Z,7.13
2023-02-18T07:39:19.017Z,7.25
2023-02-18T07:41:50.415Z,7.32
2023-02-18T07:44:21.869Z,7.07
2023-02-18T07:46:53.336Z,7.63
2023-02-18T07:49:24.820Z,6.60
2023-02-18T07:51:56.591Z,7.43
2023-02-18T07:54:28.145Z,7.45
2023-02-18T07:56:59.551Z,6.03
2023-02-18T07:59:31.000Z,6.17
2023-02-18T08:02:02.882Z,5.35
2023-02-18T08:04:34.386Z,6.00
2023-02-18T08:07:05.792Z,6.00
2023-02-18T08:09:37.491Z,5.43
2023-02-18T08:12:09.277Z,5.88
2023-02-18T08:14:40.727Z,6.50
2023-02-18T08:17:12.456Z,5.85
2023-02-18T08:19:43.944Z,6.30
2023-02-18T08:22:15.639Z,6.50
2023-02-18T08:24:47.233Z,6.80
2023-02-18T08:27:18.666Z,7.57
2023-02-18T08:29:50.187Z,6.70
2023-02-18T08:32:21.814Z,7.03
2023-02-18T08:34:53.293Z,6.90
2023-02-18T08:37:24.834Z,6.82
2023-02-18T08:39:56.338Z,6.83
2023-02-18T08:42:27.793Z,7.20
2023-02-18T08:44:59.312Z,6.77
2023-02-18T08:48:18.702Z,6.78
2023-02-18T08:50:22.259Z,5.97
2023-02-18T08:52:53.691Z,7.28
2023-02-18T08:55:25.148Z,7.13
2023-02-18T08:57:56.601Z,7.25
2023-02-18T09:00:28.222Z,6.85
2023-02-18T09:02:59.656Z,7.13
2023-02-18T09:05:31.137Z,7.25
2023-02-18T09:08:02.599Z,6.93
2023-02-18T09:10:34.704Z,7.05
2023-02-18T09:13:06.182Z,7.30
2023-02-18T09:15:37.676Z,6.78
2023-02-18T09:18:09.169Z,6.22
2023-02-18T09:20:40.622Z,5.85
2023-02-18T09:23:12.062Z,6.43
2023-02-18T09:25:43.529Z,6.63
2023-02-18T09:28:14.996Z,6.25
2023-02-18T09:30:46.524Z,7.55
2023-02-18T09:33:18.603Z,6.72
2023-02-18T09:35:50.011Z,7.05
2023-02-18T09:38:21.445Z,6.78
2023-02-18T09:40:54.410Z,7.35
2023-02-18T09:43:39.100Z,6.55
2023-02-18T09:46:21.711Z,7.10
2023-02-18T09:48:53.235Z,6.80
2023-02-18T09:51:24.705Z,7.17
2023-02-18T09:53:56.162Z,7.22
2023-02-18T09:56:31.579Z,7.30
2023-02-18T09:59:06.935Z,6.60
2023-02-18T10:01:41.497Z,6.78
2023-02-18T10:04:22.448Z,6.57
2023-02-18T10:06:54.924Z,7.18
2023-02-18T10:09:37.617Z,6.68
2023-02-18T10:12:21.737Z,5.68
2023-02-18T10:14:56.156Z,7.00
2023-02-18T10:17:31.402Z,6.97
2023-02-18T10:20:07.810Z,6.77
2023-02-18T10:22:39.963Z,7.13
2023-02-18T10:25:19.419Z,7.32
2023-02-18T10:27:53.361Z,7.15
2023-02-18T10:30:36.040Z,6.88
2023-02-18T10:33:27.624Z,6.50
2023-02-18T10:36:05.045Z,6.43
2023-02-18T10:39:10.106Z,6.53
2023-02-18T10:42:08.893Z,6.03
2023-02-18T10:44:43.031Z,6.68
2023-02-18T10:47:37.483Z,6.60
2023-02-18T10:50:11.045Z,5.82
2023-02-18T10:52:46.461Z,6.30
2023-02-18T10:55:18.819Z,5.55
2023-02-18T10:57:53.237Z,6.47
2023-02-18T11:00:27.939Z,6.28
2023-02-18T11:03:17.460Z,6.20
2023-02-18T11:05:52.172Z,6.15
2023-02-18T11:08:27.643Z,6.00
2023-02-18T11:11:13.043Z,6.10
2023-02-18T11:13:45.493Z,5.50
2023-02-18T11:16:17.436Z,6.32
2023-02-18T11:18:48.925Z,5.20
2023-02-18T11:21:22.061Z,5.78
2023-02-18T11:23:55.667Z,4.80
2023-02-18T11:26:32.513Z,5.35
2023-02-18T11:29:20.884Z,4.80
2023-02-18T11:31:55.219Z,4.65
2023-02-18T11:34:30.427Z,4.90
2023-02-18T11:37:17.675Z,4.80
2023-02-18T11:39:53.052Z,4.40
2023-02-18T11:42:26.913Z,4.75
2023-02-18T11:45:00.255Z,5.35
2023-02-18T11:47:36.409Z,4.65
2023-02-18T11:50:11.016Z,5.45
2023-02-18T11:52:45.444Z,4.97
2023-02-18T11:55:17.151Z,5.37
2023-02-18T11:58:06.217Z,5.05
2023-02-18T12:00:46.070Z,5.18
2023-02-18T12:03:30.694Z,4.90
2023-02-18T12:06:05.581Z,4.50
2023-02-18T12:08:48.700Z,4.68
2023-02-18T12:11:29.122Z,5.32
2023-02-18T12:14:00.560Z,5.00
2023-02-18T12:16:41.176Z,4.80
2023-02-18T12:19:21.807Z,4.78
2023-02-18T12:22:09.964Z,4.57
2023-02-18T12:24:52.415Z,3.55
2023-02-18T12:27:34.245Z,5.53
2023-02-18T12:30:27.609Z,4.70
2023-02-18T12:33:07.864Z,3.97
2023-02-18T12:36:07.408Z,4.50
2023-02-18T12:38:54.386Z,4.73
2023-02-18T12:41:45.463Z,4.40
2023-02-18T12:44:39.917Z,4.95
2023-02-18T12:47:29.457Z,5.03
2023-02-18T12:50:38.365Z,4.30
2023-02-18T12:53:35.924Z,4.82
2023-02-18T12:56:30.144Z,3.97
2023-02-18T12:59:16.717Z,5.25
2023-02-18T13:02:11.269Z,4.63
2023-02-18T13:05:11.355Z,4.70
2023-02-18T13:07:54.683Z,4.72
2023-02-18T13:10:29.022Z,4.15
2023-02-18T13:13:09.818Z,4.43
2023-02-18T13:15:45.580Z,4.93
2023-02-18T13:18:23.958Z,4.50
2023-02-18T13:21:00.170Z,4.85
2023-02-18T13:23:39.500Z,4.20
2023-02-18T13:26:14.877Z,4.40
2023-02-18T13:29:27.804Z,4.00
2023-02-18T13:32:23.891Z,4.00
2023-02-18T13:35:05.210Z,4.30
2023-02-18T13:37:45.896Z,4.90
2023-02-18T13:40:22.624Z,4.18
2023-02-18T13:42:54.652Z,4.78
2023-02-18T13:45:31.873Z,3.85
2023-02-18T13:48:23.129Z,4.47
2023-02-18T13:51:02.269Z,4.47
2023-02-18T13:53:40.108Z,4.72
2023-02-18T13:56:17.477Z,4.40
2023-02-18T13:58:55.843Z,3.92
2023-02-18T14:01:46.898Z,4.27
2023-02-18T14:04:48.251Z,3.90
2023-02-18T14:07:25.883Z,4.40
2023-02-18T14:09:59.745Z,3.58
2023-02-18T14:12:44.625Z,4.00
2023-02-18T14:15:18.827Z,3.58
2023-02-18T14:18:14.515Z,4.40
2023-02-18T14:20:48.879Z,3.93
2023-02-18T14:23:20.280Z,3.50
2023-02-18T14:26:06.768Z,3.75
2023-02-18T14:28:49.573Z,3.90
2023-02-18T14:31:42.685Z,3.70
2023-02-18T14:34:37.127Z,4.20
2023-02-18T14:37:23.906Z,3.80
2023-02-18T14:39:55.259Z,4.47
2023-02-18T14:42:50.631Z,3.95
2023-02-18T14:45:46.709Z,3.97
2023-02-18T14:48:38.797Z,4.05
2023-02-18T14:51:14.839Z,4.50
2023-02-18T14:53:47.384Z,4.50
2023-02-18T14:56:21.238Z,4.37
2023-02-18T14:58:58.096Z,4.95
2023-02-18T15:01:31.517Z,4.85
2023-02-18T15:04:04.161Z,5.00
2023-02-18T15:06:38.228Z,4.55
2023-02-18T15:09:18.123Z,3.88
2023-02-18T15:11:52.091Z,4.38
2023-02-18T15:14:28.807Z,4.95
2023-02-18T15:17:01.843Z,4.63
2023-02-18T15:25:54.000Z,5.15
2023-02-18T15:28:32.584Z,5.00
2023-02-18T15:31:04.984Z,5.13
2023-02-18T15:33:36.508Z,5.85
2023-02-18T15:36:13.992Z,5.65
2023-02-18T15:38:46.039Z,5.18
2023-02-18T15:41:20.617Z,5.50
2023-02-18T15:43:59.501Z,5.37
2023-02-18T15:46:32.735Z,5.93
2023-02-18T15:49:07.846Z,5.60
2023-02-18T15:51:43.051Z,5.80
2023-02-18T15:54:21.196Z,6.50
2023-02-18T15:56:55.776Z,6.93
2023-02-18T15:59:32.359Z,6.05
2023-02-18T16:02:22.592Z,6.15
2023-02-18T16:04:58.886Z,6.40
2023-02-18T16:07:36.796Z,6.13
2023-02-18T16:10:16.231Z,5.82
2023-02-18T16:12:55.289Z,5.53
2023-02-18T16:15:30.283Z,5.83
2023-02-18T16:18:01.927Z,6.37
2023-02-18T16:20:38.153Z,6.05
2023-02-18T16:23:14.865Z,6.50
2023-02-18T16:25:49.213Z,6.07
2023-02-18T16:28:27.417Z,6.80
2023-02-18T16:30:58.904Z,5.57
2023-02-18T16:33:30.336Z,6.28
2023-02-18T16:36:01.770Z,5.60
2023-02-18T16:38:33.424Z,7.13
2023-02-18T16:41:05.223Z,5.97
2023-02-18T16:43:36.690Z,6.22
2023-02-18T16:46:19.676Z,6.72
2023-02-18T16:48:54.072Z,7.00
2023-02-18T16:51:34.612Z,6.55
2023-02-18T16:54:06.238Z,7.32
2023-02-18T16:56:38.138Z,7.50
2023-02-18T16:59:09.592Z,7.97
2023-02-18T17:01:44.238Z,7.38
2023-02-18T17:04:17.641Z,7.88
2023-02-18T17:06:49.391Z,7.70
2023-02-18T17:09:23.326Z,7.60
2023-02-18T17:11:55.936Z,7.97
2023-02-18T17:14:27.427Z,8.75
2023-02-18T17:17:02.437Z,7.85
2023-02-18T17:19:33.900Z,8.07
2023-02-18T17:22:05.460Z,8.02
2023-02-18T17:24:36.903Z,8.63
2023-02-18T17:27:10.248Z,8.02
2023-02-18T17:29:41.693Z,7.30
2023-02-18T17:32:13.923Z,6.70
2023-02-18T17:34:45.483Z,7.65
2023-02-18T17:37:16.972Z,7.97
2023-02-18T17:39:48.450Z,7.55
2023-02-18T17:42:20.007Z,7.32
2023-02-18T17:44:51.477Z,7.72
2023-02-18T17:47:22.948Z,7.65
2023-02-18T17:49:54.477Z,8.17
2023-02-18T17:52:30.529Z,8.77
2023-02-18T17:55:13.143Z,7.53
2023-02-18T17:57:44.712Z,7.80
2023-02-18T18:00:20.049Z,7.20
2023-02-18T18:02:52.049Z,7.78
2023-02-18T18:05:25.087Z,8.20
2023-02-18T18:07:56.618Z,7.35
2023-02-18T18:10:31.990Z,8.20
2023-02-18T18:13:09.669Z,7.93
2023-02-18T18:15:43.540Z,8.70
2023-02-18T18:18:15.379Z,8.43
2023-02-18T18:20:51.060Z,9.25
2023-02-18T18:23:23.311Z,8.63
2023-02-18T18:25:57.344Z,8.35
2023-02-18T18:28:28.839Z,9.52
2023-02-18T18:31:02.624Z,10.02
2023-02-18T18:33:34.566Z,10.60
2023-02-18T18:36:06.712Z,8.18
2023-02-18T18:38:38.327Z,7.60
2023-02-18T18:41:14.150Z,8.10
2023-02-18T18:43:46.099Z,8.27
2023-02-18T18:46:18.093Z,8.03
2023-02-18T18:48:49.579Z,8.70
2023-02-18T18:51:27.354Z,8.32
2023-02-18T18:53:58.939Z,7.43
2023-02-18T18:56:30.389Z,7.85
2023-02-18T18:59:01.920Z,7.47
2023-02-18T19:01:33.478Z,7.68
2023-02-18T19:04:05.178Z,7.73
2023-02-18T19:06:36.716Z,8.10
2023-02-18T19:09:10.649Z,8.63
2023-02-18T19:11:42.269Z,8.65
2023-02-18T19:14:14.129Z,9.20
2023-02-18T19:16:45.661Z,9.23
2023-02-18T19:19:17.156Z,9.45
2023-02-18T19:21:48.555Z,8.50
2023-02-18T19:24:19.983Z,8.38
2023-02-18T19:26:51.412Z,8.80
2023-02-18T19:29:22.879Z,9.48
2023-02-18T19:31:54.382Z,10.10
2023-02-18T19:34:25.891Z,10.18
2023-02-18T19:36:57.345Z,10.32
2023-02-18T19:39:28.803Z,9.87
2023-02-18T19:42:00.220Z,10.18
2023-02-18T19:44:34.933Z,10.32
2023-02-18T19:47:06.468Z,10.88
2023-02-18T19:49:37.920Z,11.03
2023-02-18T19:52:09.358Z,10.00
2023-02-18T19:54:40.813Z,9.55
2023-02-18T19:57:13.091Z,10.10
2023-02-18T19:59:44.784Z,9.25
2023-02-18T20:02:19.230Z,9.43
2023-02-18T20:04:51.333Z,9.63
2023-02-18T20:07:23.125Z,8.85
2023-02-18T20:09:54.754Z,9.15
2023-02-18T20:12:26.451Z,8.65
2023-02-18T20:14:58.039Z,10.15
2023-02-18T20:17:29.945Z,9.02
2023-02-18T20:20:01.364Z,9.23
2023-02-18T20:22:32.749Z,10.00
2023-02-18T20:25:04.573Z,10.55
2023-02-18T20:27:36.389Z,9.77
2023-02-18T20:30:08.668Z,10.05
2023-02-18T20:32:40.248Z,10.02
2023-02-18T20:35:11.734Z,9.60
2023-02-18T20:37:43.270Z,8.95
2023-02-18T20:40:14.757Z,9.38
2023-02-18T20:42:46.249Z,9.75
2023-02-18T20:45:18.060Z,9.70
2023-02-18T20:47:49.580Z,9.43
2023-02-18T20:50:20.984Z,10.00
2023-02-18T20:52:52.676Z,9.48
2023-02-18T20:55:24.127Z,9.50
2023-02-18T20:57:55.547Z,9.65
2023-02-18T21:00:26.950Z,10.00
2023-02-18T21:02:58.459Z,9.00
2023-02-18T21:05:29.948Z,9.80
2023-02-18T21:08:01.423Z,9.60
2023-02-18T21:10:32.887Z,10.43
2023-02-18T21:13:04.294Z,9.10
2023-02-18T21:15:37.632Z,9.43
2023-02-18T21:18:09.122Z,8.57
2023-02-18T21:20:41.242Z,8.50
2023-02-18T21:23:13.006Z,7.90
2023-02-18T21:25:44.591Z,7.90
2023-02-18T21:28:16.134Z,7.72
2023-02-18T21:30:47.615Z,7.75
2023-02-18T21:33:19.086Z,7.63
2023-02-18T21:35:50.547Z,8.90
2023-02-18T21:38:21.998Z,7.88
2023-02-18T21:40:53.464Z,8.57
2023-02-18T21:43:24.876Z,7.88
2023-02-18T21:46:08.216Z,8.95
2023-02-18T21:48:39.681Z,8.80
2023-02-18T21:51:11.298Z,9.48
2023-02-18T21:53:42.797Z,9.67
2023-02-18T21:56:14.193Z,8.80
2023-02-18T21:58:45.664Z,9.07
2023-02-18T22:01:17.133Z,9.77
2023-02-18T22:03:48.664Z,9.13
2023-02-18T22:06:20.083Z,9.45
2023-02-18T22:08:51.682Z,9.50
2023-02-18T22:11:23.110Z,9.27
2023-02-18T22:13:54.750Z,9.23
2023-02-18T22:16:26.227Z,9.43
2023-02-18T22:18:57.973Z,9.63
2023-02-18T22:21:29.517Z,9.02
2023-02-18T22:24:00.939Z,9.70
2023-02-18T22:26:32.962Z,8.40
2023-02-18T22:29:04.447Z,9.30
2023-02-18T22:31:37.009Z,8.52
2023-02-18T22:34:09.220Z,10.03
2023-02-18T22:36:40.762Z,9.32
2023-02-18T22:39:13.225Z,9.48
2023-02-18T22:41:44.949Z,8.82
2023-02-18T22:44:17.489Z,8.65
2023-02-18T22:46:48.906Z,8.20
2023-02-18T22:49:20.364Z,7.78
2023-02-18T22:51:53.928Z,6.50
2023-02-18T22:54:25.414Z,7.45
2023-02-18T22:56:56.881Z,6.47
2023-02-18T22:59:28.413Z,7.07
2023-02-18T23:01:59.813Z,7.15
2023-02-18T23:04:31.233Z,7.30
2023-02-18T23:07:02.685Z,6.85
2023-02-18T23:09:34.216Z,6.50
2023-02-18T23:12:05.848Z,6.30
2023-02-18T23:14:37.326Z,7.70
2023-02-18T23:17:08.763Z,7.38
2023-02-18T23:19:42.520Z,7.80
2023-02-18T23:22:17.185Z,7.30
2023-02-18T23:24:48.650Z,7.25
2023-02-18T23:27:20.156Z,7.05
2023-02-18T23:29:53.023Z,6.60
2023-02-18T23:32:24.912Z,7.57
2023-02-18T23:34:56.358Z,6.47
2023-02-18T23:37:27.777Z,7.25
2023-02-18T23:39:59.208Z,7.13
2023-02-18T23:42:30.642Z,7.60
2023-02-18T23:45:02.059Z,6.00
2023-02-18T23:47:33.480Z,6.60
2023-02-18T23:50:05.138Z,6.28
2023-02-18T23:52:37.029Z,5.28
2023-02-18T23:55:10.204Z,5.25
2023-02-18T23:57:41.678Z,5.10
